Time;durP1;ratioP1;P1;durP2;ratioP2;P2;SDS_P1;SDS_P2;PMS_P1;PMS_P2;Temp;Humidity;BMP_temperature;BMP_pressure;BME280_temperature;BME280_humidity;BME280_pressure;Samples;Min_cycle;Max_cycle;Signal;HPM_P1;HPM_P2
2022/02/05 00:02:31;;;;;;;;;;;;;;;17.07;36.67;101033.41;4981789;28;810;-58
2022/02/05 00:04:58;;;;;;;;;;;;;;;17.18;36.42;101028.78;4978196;28;842;-59
2022/02/05 00:07:26;;;;;;;;;;;;;;;17.27;36.21;101029.06;4978168;28;1906;-58
2022/02/05 00:12:55;;;;;;;;;;;;;;;16.56;37.46;101033.19;4978301;28;845;-59
2022/02/05 00:39:48;;;;;;;;;;;;;;;16.49;37.64;101011.47;4915425;28;1215;-57
2022/02/05 00:42:27;;;;;;;;;;;;;;;16.65;37.53;101017.03;4977750;28;1501;-59
2022/02/05 00:44:53;;;;;;;;;;;;;;;16.73;37.32;101013.75;4983908;28;893;-59
2022/02/05 00:47:18;;;;;;;;;;;;;;;16.99;36.70;101006.47;4977179;28;1973;-58
2022/02/05 00:49:48;;;;;;;;;;;;;;;17.22;36.46;101016.16;4978022;28;1033;-58
2022/02/05 00:52:16;;;;;;;;;;;;;;;17.32;36.28;101011.75;4977626;28;806;-58
2022/02/05 00:54:46;;;;;;;;;;;;;;;17.27;36.24;101015.31;4981687;28;819;-58
2022/02/05 00:59:43;;;;;;;;;;;;;;;16.58;37.39;101006.31;4989632;28;921;-58
2022/02/05 01:02:08;;;;;;;;;;;;;;;16.46;37.59;101001.03;4977636;28;1021;-57
2022/02/05 01:04:34;;;;;;;;;;;;;;;16.33;37.78;101002.34;4976893;28;874;-58
2022/02/05 01:06:59;;;;;;;;;;;;;;;16.43;37.87;100999.63;4977875;28;1898;-57
2022/02/05 01:09:26;;;;;;;;;;;;;;;16.88;37.15;101005.59;4977655;28;827;-58
2022/02/05 01:11:52;;;;;;;;;;;;;;;17.38;36.09;101002.44;4977592;28;1505;-57
2022/02/05 01:14:21;;;;;;;;;;;;;;;16.99;36.65;101003.72;4982464;28;833;-59
2022/02/05 01:17:07;;;;;;;;;;;;;;;16.55;37.43;101004.91;4980437;28;783;-57
2022/02/05 01:19:57;;;;;;;;;;;;;;;16.53;37.47;101001.59;4987398;28;811;-57
2022/02/05 01:22:18;;;;;;;;;;;;;;;16.77;37.12;100999.25;4981159;28;1352;-57
2022/02/05 01:24:47;;;;;;;;;;;;;;;16.91;36.91;101001.50;4981316;28;862;-57
2022/02/05 01:27:28;;;;;;;;;;;;;;;17.27;36.03;101010.63;4981181;28;1979;-57
2022/02/05 01:32:26;;;;;;;;;;;;;;;17.11;36.44;101006.25;4981791;28;1272;-58
2022/02/05 01:56:43;;;;;;;;;;;;;;;16.57;37.31;100982.69;4999327;28;857;-57
2022/02/05 02:07:26;;;;;;;;;;;;;;;17.19;36.40;100985.63;4965531;28;2004;-58
2022/02/05 02:12:03;;;;;;;;;;;;;;;16.88;36.75;100969.91;4980740;28;822;-59
2022/02/05 02:30:29;;;;;;;;;;;;;;;16.96;36.65;100960.31;4991039;28;921;-58
2022/02/05 02:33:05;;;;;;;;;;;;;;;17.22;36.10;100947.44;4979997;28;1099;-59
2022/02/05 02:35:32;;;;;;;;;;;;;;;17.34;35.88;100960.91;4985881;28;778;-58
2022/02/05 02:38:04;;;;;;;;;;;;;;;17.15;36.25;100946.06;4979476;28;867;-58
2022/02/05 02:40:40;;;;;;;;;;;;;;;16.88;36.76;100949.81;4980126;28;843;-58
2022/02/05 02:43:14;;;;;;;;;;;;;;;16.43;37.60;100950.22;4979790;28;858;-58
2022/02/05 02:45:41;;;;;;;;;;;;;;;16.37;37.64;100948.56;4982911;28;909;-58
2022/02/05 02:48:06;;;;;;;;;;;;;;;16.36;37.92;100949.66;4982294;28;1977;-58
2022/02/05 02:56:28;;;;;;;;;;;;;;;16.33;38.11;100954.88;4979708;28;839;-58
2022/02/05 02:58:49;;;;;;;;;;;;;;;16.80;37.26;100953.09;4994367;28;937;-58
2022/02/05 03:01:18;;;;;;;;;;;;;;;16.97;36.44;100959.22;4987920;28;744;-58
2022/02/05 03:03:44;;;;;;;;;;;;;;;17.19;36.04;100956.22;4979270;28;901;-59
2022/02/05 03:06:09;;;;;;;;;;;;;;;17.22;36.10;100957.59;4979661;28;1397;-58
2022/02/05 03:08:34;;;;;;;;;;;;;;;16.98;36.44;100957.28;4978936;28;1914;-58
2022/02/05 03:11:00;;;;;;;;;;;;;;;16.52;37.20;100956.06;4979347;28;778;-58
2022/02/05 03:13:25;;;;;;;;;;;;;;;16.31;37.77;100944.13;4982291;28;803;-58
2022/02/05 03:15:52;;;;;;;;;;;;;;;16.53;37.60;100949.44;4980087;28;974;-58
2022/02/05 03:18:31;;;;;;;;;;;;;;;16.71;36.92;100945.38;4979575;28;825;-58
2022/02/05 03:20:56;;;;;;;;;;;;;;;17.10;36.23;100944.94;4979080;28;869;-58
2022/02/05 03:23:22;;;;;;;;;;;;;;;17.20;35.91;100940.56;4978941;28;850;-58
2022/02/05 03:25:47;;;;;;;;;;;;;;;16.60;37.16;100943.72;4982046;28;761;-58
2022/02/05 03:28:14;;;;;;;;;;;;;;;16.29;37.88;100940.84;4997847;28;1906;-58
2022/02/05 03:30:39;;;;;;;;;;;;;;;16.32;37.79;100934.00;4988048;28;838;-57
2022/02/05 03:33:04;;;;;;;;;;;;;;;16.39;37.88;100940.88;4979142;28;1114;-58
2022/02/05 03:35:30;;;;;;;;;;;;;;;16.61;37.46;100934.38;4979200;28;830;-58
2022/02/05 03:37:55;;;;;;;;;;;;;;;16.90;36.74;100940.25;4978228;28;827;-58
2022/02/05 03:40:21;;;;;;;;;;;;;;;17.17;36.20;100939.19;4981112;28;917;-58
2022/02/05 03:42:47;;;;;;;;;;;;;;;16.87;36.53;100937.19;4960956;28;1379;-59
2022/02/05 03:45:14;;;;;;;;;;;;;;;16.46;37.46;100939.81;4982810;28;823;-58
2022/02/05 03:47:39;;;;;;;;;;;;;;;16.40;38.05;100933.50;4978481;28;1910;-58
2022/02/05 03:50:05;;;;;;;;;;;;;;;16.58;37.35;100937.69;4978396;28;886;-58
2022/02/05 03:52:31;;;;;;;;;;;;;;;16.82;37.04;100938.00;4984304;28;834;-58
2022/02/05 03:54:56;;;;;;;;;;;;;;;17.16;36.28;100936.72;4978417;28;827;-60
2022/02/05 03:57:21;;;;;;;;;;;;;;;17.10;36.14;100927.66;4977735;28;818;-60
2022/02/05 03:59:47;;;;;;;;;;;;;;;16.63;37.12;100942.34;4991194;28;1020;-58
2022/02/05 04:02:12;;;;;;;;;;;;;;;16.59;37.64;100940.16;4978062;28;750;-58
2022/02/05 04:04:38;;;;;;;;;;;;;;;16.62;37.24;100941.53;4980847;28;1164;-58
2022/02/05 04:07:04;;;;;;;;;;;;;;;16.90;36.76;100947.66;4978419;28;1906;-58
2022/02/05 04:09:38;;;;;;;;;;;;;;;17.62;35.28;100937.53;4978528;28;821;-59
2022/02/05 04:17:25;;;;;;;;;;;;;;;16.25;37.90;100932.31;4984520;28;759;-57
2022/02/05 04:19:51;;;;;;;;;;;;;;;16.48;37.77;100934.88;4977936;28;834;-59
2022/02/05 04:22:16;;;;;;;;;;;;;;;16.77;36.93;100941.56;4977992;28;834;-59
2022/02/05 04:24:42;;;;;;;;;;;;;;;17.21;36.19;100940.28;4978265;28;832;-60
2022/02/05 04:27:10;;;;;;;;;;;;;;;17.45;35.56;100935.06;4977903;28;1906;-60
2022/02/05 04:29:35;;;;;;;;;;;;;;;16.80;36.80;100931.13;4986079;28;878;-61
2022/02/05 04:32:01;;;;;;;;;;;;;;;16.51;37.49;100934.31;4977892;28;1000;-60
2022/02/05 04:34:26;;;;;;;;;;;;;;;16.40;37.66;100931.56;4978217;28;835;-60
2022/02/05 04:36:52;;;;;;;;;;;;;;;16.54;37.39;100931.06;4978481;28;815;-61
2022/02/05 04:39:20;;;;;;;;;;;;;;;16.74;36.81;100925.63;4997046;28;835;-60
2022/02/05 04:57:35;;;;;;;;;;;;;;;16.91;36.38;100952.06;4982038;28;748;-62
2022/02/05 05:05:16;;;;;;;;;;;;;;;16.80;36.80;100931.13;4982141;28;778;-62
2022/02/05 05:07:52;;;;;;;;;;;;;;;16.44;37.32;100940.09;4981793;28;1914;-63
2022/02/05 05:10:55;;;;;;;;;;;;;;;16.63;37.13;100950.59;4982039;28;754;-63
2022/02/05 05:13:32;;;;;;;;;;;;;;;16.48;37.57;100945.84;4995762;28;1444;-62
2022/02/05 05:21:07;;;;;;;;;;;;;;;17.36;35.67;100949.63;4993802;28;862;-64
2022/02/05 05:23:32;;;;;;;;;;;;;;;17.23;35.75;100953.75;4963959;28;1154;-62
2022/02/05 05:25:58;;;;;;;;;;;;;;;16.74;36.75;100953.06;4981543;28;813;-62
2022/02/05 05:28:23;;;;;;;;;;;;;;;16.49;37.38;100956.56;4981784;28;1914;-64
2022/02/05 05:30:49;;;;;;;;;;;;;;;16.38;37.69;100960.34;4986918;28;1075;-63
2022/02/05 05:33:14;;;;;;;;;;;;;;;16.48;37.52;100951.34;4980989;28;839;-62
2022/02/05 05:35:40;;;;;;;;;;;;;;;16.86;36.88;100963.03;4980934;28;758;-61
2022/02/05 05:38:06;;;;;;;;;;;;;;;17.14;36.08;100961.72;4981371;28;799;-61
2022/02/05 05:40:32;;;;;;;;;;;;;;;17.34;35.59;100965.59;4981500;28;918;-61
2022/02/05 05:43:02;;;;;;;;;;;;;;;17.53;35.42;100968.59;4981269;28;862;-62
2022/02/05 05:45:51;;;;;;;;;;;;;;;17.17;36.09;100968.59;4985114;28;890;-61
2022/02/05 05:48:26;;;;;;;;;;;;;;;16.81;36.79;100963.00;4981273;28;1989;-61
2022/02/05 05:50:58;;;;;;;;;;;;;;;16.60;37.05;100973.91;4993517;28;752;-62
2022/02/05 05:53:24;;;;;;;;;;;;;;;16.50;37.53;100979.38;4999717;28;781;-63
2022/02/05 05:55:49;;;;;;;;;;;;;;;16.58;37.38;100970.63;4999500;28;717;-65
2022/02/05 05:58:15;;;;;;;;;;;;;;;16.84;36.97;100978.94;4998537;28;829;-61
2022/02/05 06:00:41;;;;;;;;;;;;;;;17.15;36.02;100970.78;4983265;28;985;-62
2022/02/05 06:03:06;;;;;;;;;;;;;;;17.48;35.38;100971.38;4980523;28;777;-63
2022/02/05 06:05:31;;;;;;;;;;;;;;;17.52;35.54;100977.97;4980459;28;964;-62
2022/02/05 06:07:57;;;;;;;;;;;;;;;17.34;35.77;100977.41;4980498;28;1968;-62
2022/02/05 06:10:22;;;;;;;;;;;;;;;17.07;36.37;100972.97;4980829;28;849;-62
2022/02/05 06:12:48;;;;;;;;;;;;;;;16.81;36.67;100973.97;4983436;28;1503;-62
2022/02/05 06:15:14;;;;;;;;;;;;;;;16.46;37.39;100973.56;4980937;28;878;-62
2022/02/05 06:17:39;;;;;;;;;;;;;;;16.56;37.08;100967.31;4980225;28;851;-62
2022/02/05 06:20:06;;;;;;;;;;;;;;;16.75;37.07;100970.41;4980321;28;894;-62
2022/02/05 06:22:31;;;;;;;;;;;;;;;17.00;36.32;100972.41;4980518;28;901;-61
2022/02/05 06:24:57;;;;;;;;;;;;;;;17.29;36.12;100969.13;4980018;28;841;-61
2022/02/05 06:27:22;;;;;;;;;;;;;;;17.58;35.20;100982.34;4980272;28;2003;-64
2022/02/05 06:29:48;;;;;;;;;;;;;;;17.23;35.94;100967.50;4968588;28;851;-62
2022/02/05 06:32:15;;;;;;;;;;;;;;;16.88;36.60;100978.13;4980191;28;980;-62
2022/02/05 06:34:41;;;;;;;;;;;;;;;16.56;37.19;100975.53;4980437;28;890;-63
2022/02/05 06:37:06;;;;;;;;;;;;;;;16.58;37.37;100970.63;4983388;28;821;-62
2022/02/05 06:39:32;;;;;;;;;;;;;;;16.62;37.04;100969.00;4980333;28;751;-61
2022/02/05 06:41:57;;;;;;;;;;;;;;;16.84;36.70;100968.75;4979918;28;822;-60
2022/02/05 06:44:23;;;;;;;;;;;;;;;17.37;35.62;100965.03;4983445;28;871;-61
2022/02/05 06:46:48;;;;;;;;;;;;;;;17.51;35.56;100968.88;4980154;28;1918;-62
2022/02/05 06:49:13;;;;;;;;;;;;;;;17.61;35.12;100966.16;4980287;28;858;-60
2022/02/05 06:51:39;;;;;;;;;;;;;;;17.40;35.76;100962.56;4985713;28;819;-60
2022/02/05 06:54:04;;;;;;;;;;;;;;;17.07;36.08;100970.22;4980050;28;798;-60
2022/02/05 06:56:30;;;;;;;;;;;;;;;16.84;36.88;100967.94;4979454;28;827;-60
2022/02/05 06:58:55;;;;;;;;;;;;;;;16.77;36.86;100965.44;4981884;28;897;-61
2022/02/05 07:01:21;;;;;;;;;;;;;;;16.95;36.77;100958.66;4979765;28;842;-62
2022/02/05 07:03:46;;;;;;;;;;;;;;;17.14;36.22;100958.13;4982835;28;838;-60
2022/02/05 07:06:12;;;;;;;;;;;;;;;17.40;35.81;100968.06;4979206;28;836;-60
2022/02/05 07:08:40;;;;;;;;;;;;;;;17.78;35.45;100959.50;4979467;28;1914;-60
2022/02/05 07:11:06;;;;;;;;;;;;;;;17.75;35.44;100976.56;4979615;28;791;-61
2022/02/05 07:13:31;;;;;;;;;;;;;;;17.44;36.09;100971.06;4978909;28;806;-60
2022/02/05 07:16:11;;;;;;;;;;;;;;;17.21;36.27;100973.28;4985016;28;1036;-61
2022/02/05 07:21:18;;;;;;;;;;;;;;;16.99;36.98;100973.50;4992096;28;803;-61
2022/02/05 07:24:12;;;;;;;;;;;;;;;17.08;36.64;100982.03;4998036;28;766;-60
2022/02/05 07:29:14;;;;;;;;;;;;;;;17.45;36.20;100983.72;4989448;28;772;-59
2022/02/05 07:32:05;;;;;;;;;;;;;;;18.12;35.09;100969.94;4979596;28;1129;-59
2022/02/05 07:34:31;;;;;;;;;;;;;;;17.50;36.03;100977.41;4988736;28;1514;-59
2022/02/05 07:37:02;;;;;;;;;;;;;;;17.23;36.76;100970.25;4997168;28;866;-60
2022/02/05 07:39:32;;;;;;;;;;;;;;;17.02;37.25;100972.13;4997623;28;850;-60
2022/02/05 07:41:59;;;;;;;;;;;;;;;16.70;36.96;100968.44;4988846;28;751;-60
2022/02/05 07:44:25;;;;;;;;;;;;;;;16.46;38.39;100976.31;4981899;28;815;-60
2022/02/05 07:46:52;;;;;;;;;;;;;;;17.28;36.65;100964.75;4978681;28;1914;-59
2022/02/05 07:49:18;;;;;;;;;;;;;;;17.71;35.72;100953.47;4978664;28;881;-60
2022/02/05 07:51:43;;;;;;;;;;;;;;;17.88;35.57;100964.16;4985519;28;839;-64
2022/02/05 07:54:11;;;;;;;;;;;;;;;17.57;35.95;100953.19;4984537;28;977;-61
2022/02/05 07:56:57;;;;;;;;;;;;;;;17.23;36.76;100953.75;4978794;28;804;-60
2022/02/05 07:59:22;;;;;;;;;;;;;;;17.06;37.01;100954.81;4979622;28;1179;-60
2022/02/05 08:01:47;;;;;;;;;;;;;;;16.88;37.36;100952.56;4988071;28;1239;-60
2022/02/05 08:04:13;;;;;;;;;;;;;;;16.56;37.95;100950.81;4997349;28;1413;-61
2022/02/05 08:06:38;;;;;;;;;;;;;;;17.25;36.64;100940.56;4994554;28;773;-61
2022/02/05 08:09:14;;;;;;;;;;;;;;;17.05;36.83;100947.69;4978790;28;1910;-61
2022/02/05 08:11:51;;;;;;;;;;;;;;;16.90;37.14;100947.66;4978507;28;764;-62
2022/02/05 08:14:19;;;;;;;;;;;;;;;16.55;37.64;100950.00;4982968;28;819;-62
2022/02/05 08:19:25;;;;;;;;;;;;;;;17.44;36.33;100957.34;4984179;28;822;-62
2022/02/05 08:21:50;;;;;;;;;;;;;;;17.23;36.58;100948.25;4978058;28;788;-61
2022/02/05 08:24:16;;;;;;;;;;;;;;;17.02;36.83;100948.22;4978717;28;821;-62
2022/02/05 08:26:42;;;;;;;;;;;;;;;16.56;37.26;100956.31;4978192;28;894;-62
2022/02/05 08:29:09;;;;;;;;;;;;;;;16.74;37.50;100946.78;4980971;28;2057;-61
2022/02/05 08:31:35;;;;;;;;;;;;;;;17.23;36.52;100942.75;4983404;28;1091;-61
2022/02/05 08:34:00;;;;;;;;;;;;;;;17.62;35.67;100939.47;4979340;28;783;-62
2022/02/05 08:36:26;;;;;;;;;;;;;;;17.69;35.79;100930.94;4978530;28;1198;-62
2022/02/05 08:38:52;;;;;;;;;;;;;;;17.49;35.77;100934.50;4978082;28;955;-63
2022/02/05 08:41:17;;;;;;;;;;;;;;;17.22;36.36;100930.13;4978171;28;797;-60
2022/02/05 08:43:42;;;;;;;;;;;;;;;17.20;36.64;100932.31;4978236;28;863;-61
2022/02/05 08:46:08;;;;;;;;;;;;;;;16.84;36.58;100937.72;4980107;28;943;-62
2022/02/05 08:48:34;;;;;;;;;;;;;;;16.46;37.39;100931.59;4977696;28;1967;-62
2022/02/05 08:50:59;;;;;;;;;;;;;;;17.14;36.74;100933.41;4978410;28;767;-63
2022/02/05 08:53:25;;;;;;;;;;;;;;;17.49;36.03;100923.50;4977650;28;854;-63
2022/02/05 08:55:51;;;;;;;;;;;;;;;17.72;35.65;100933.94;4977577;28;880;-62
2022/02/05 08:58:17;;;;;;;;;;;;;;;17.68;35.77;100926.53;4983095;28;874;-61
2022/02/05 09:00:50;;;;;;;;;;;;;;;17.47;36.04;100932.03;4978117;28;1049;-63
2022/02/05 09:03:33;;;;;;;;;;;;;;;17.24;36.75;100922.44;4977534;28;890;-61
2022/02/05 09:06:01;;;;;;;;;;;;;;;16.94;36.94;100929.53;4978080;28;808;-61
2022/02/05 09:08:31;;;;;;;;;;;;;;;16.60;37.16;100925.31;4977377;28;1906;-61
2022/02/05 09:11:10;;;;;;;;;;;;;;;17.02;37.28;100928.19;4979975;28;898;-62
2022/02/05 09:13:57;;;;;;;;;;;;;;;17.37;36.72;100932.88;4996440;28;826;-62
2022/02/05 09:16:23;;;;;;;;;;;;;;;17.53;36.41;100936.44;4978006;28;780;-62
2022/02/05 09:18:48;;;;;;;;;;;;;;;17.49;36.14;100921.59;4977396;28;819;-61
2022/02/05 09:21:14;;;;;;;;;;;;;;;17.27;36.81;100928.19;4977094;28;849;-62
2022/02/05 09:23:41;;;;;;;;;;;;;;;16.98;36.95;100927.88;4983414;28;757;-62
2022/02/05 09:26:07;;;;;;;;;;;;;;;16.60;36.94;100924.50;4977807;28;778;-61
2022/02/05 09:28:33;;;;;;;;;;;;;;;16.89;37.44;100922.13;4960542;28;1977;-62
2022/02/05 09:31:24;;;;;;;;;;;;;;;17.56;36.32;100911.16;4964333;28;1121;-61
2022/02/05 09:33:46;;;;;;;;;;;;;;;17.86;35.51;100909.44;4977691;28;1440;-62
2022/02/05 09:36:12;;;;;;;;;;;;;;;17.93;35.25;100909.97;4980037;28;862;-61
2022/02/05 09:38:37;;;;;;;;;;;;;;;17.76;35.72;100915.78;4980390;28;814;-63
2022/02/05 09:41:03;;;;;;;;;;;;;;;17.44;36.43;100894.91;4981107;28;786;-63
2022/02/05 09:43:29;;;;;;;;;;;;;;;17.25;36.59;100902.06;4980571;28;1251;-63
2022/02/05 09:45:57;;;;;;;;;;;;;;;16.95;36.69;100902.91;4983564;28;973;-61
2022/02/05 09:48:22;;;;;;;;;;;;;;;17.06;37.28;100893.56;4987242;28;1985;-62
2022/02/05 09:50:48;;;;;;;;;;;;;;;17.39;36.54;100878.47;4980725;28;862;-61
2022/02/05 09:53:15;;;;;;;;;;;;;;;17.23;36.86;100882.31;4980959;28;896;-62
2022/02/05 09:55:41;;;;;;;;;;;;;;;17.69;35.99;100885.00;4980759;28;867;-62
2022/02/05 09:58:06;;;;;;;;;;;;;;;18.26;34.89;100888.41;4981018;28;812;-63
2022/02/05 10:00:33;;;;;;;;;;;;;;;18.12;35.05;100876.38;4984462;28;973;-61
2022/02/05 10:03:01;;;;;;;;;;;;;;;17.74;36.06;100887.75;4999178;28;783;-62
2022/02/05 10:05:31;;;;;;;;;;;;;;;18.30;34.85;100874.94;4982458;28;819;-62
2022/02/05 10:08:02;;;;;;;;;;;;;;;18.21;34.99;100868.34;4986893;28;1985;-62
2022/02/05 10:10:37;;;;;;;;;;;;;;;17.96;35.63;100867.34;4992399;28;878;-60
2022/02/05 10:13:09;;;;;;;;;;;;;;;17.72;36.06;100867.94;4980854;28;799;-61
2022/02/05 10:15:35;;;;;;;;;;;;;;;17.41;36.63;100861.69;4988166;28;901;-62
2022/02/05 10:18:03;;;;;;;;;;;;;;;17.20;37.19;100860.88;4999345;28;1029;-63
2022/02/05 10:20:28;;;;;;;;;;;;;;;17.10;37.66;100862.53;4999136;28;797;-61
2022/02/05 10:22:53;;;;;;;;;;;;;;;17.02;37.66;100857.56;4999020;28;818;-61
2022/02/05 10:25:20;;;;;;;;;;;;;;;17.22;37.18;100844.94;4998491;28;838;-62
2022/02/05 10:27:46;;;;;;;;;;;;;;;17.54;36.63;100839.09;4985828;28;1906;-63
2022/02/05 10:30:31;;;;;;;;;;;;;;;17.63;36.71;100842.13;4985362;28;850;-61
2022/02/05 10:33:01;;;;;;;;;;;;;;;17.89;36.29;100845.63;4979459;28;1675;-62
2022/02/05 10:35:38;;;;;;;;;;;;;;;17.95;35.89;100836.25;4979973;28;937;-61
2022/02/05 10:43:07;;;;;;;;;;;;;;;18.20;35.77;100840.00;4979967;28;771;-61
2022/02/05 10:45:40;;;;;;;;;;;;;;;18.28;35.45;100836.63;4983385;28;823;-62
2022/02/05 10:48:05;;;;;;;;;;;;;;;18.37;35.57;100834.13;4979907;28;1965;-61
2022/02/05 10:50:31;;;;;;;;;;;;;;;18.39;35.54;100829.16;4980052;28;775;-63
2022/02/05 10:53:12;;;;;;;;;;;;;;;18.47;35.30;100825.81;4984114;28;959;-63
2022/02/05 10:55:45;;;;;;;;;;;;;;;18.51;35.36;100819.72;4980072;28;846;-61
2022/02/05 10:58:19;;;;;;;;;;;;;;;18.56;35.40;100822.44;4992116;28;867;-61
2022/02/05 11:05:55;;;;;;;;;;;;;;;17.70;36.89;100815.16;4980119;28;852;-62
2022/02/05 11:08:22;;;;;;;;;;;;;;;17.53;37.30;100809.13;4978714;28;1898;-60
2022/02/05 11:21:06;;;;;;;;;;;;;;;17.13;38.28;100791.66;4979509;28;874;-61
2022/02/05 11:23:32;;;;;;;;;;;;;;;17.20;38.11;100782.00;4996870;28;869;-61
2022/02/05 11:25:58;;;;;;;;;;;;;;;17.27;37.91;100782.53;4997386;28;818;-61
2022/02/05 11:28:52;;;;;;;;;;;;;;;17.48;37.62;100767.94;4997811;28;1898;-61
2022/02/05 11:31:32;;;;;;;;;;;;;;;17.70;37.18;100784.91;4963037;28;1296;-60
2022/02/05 11:34:13;;;;;;;;;;;;;;;17.75;36.78;100779.38;4979324;28;766;-60
2022/02/05 11:36:39;;;;;;;;;;;;;;;18.07;36.11;100774.56;4979162;28;845;-60
2022/02/05 11:39:05;;;;;;;;;;;;;;;17.99;36.42;100769.66;4972766;28;818;-61
2022/02/05 11:41:32;;;;;;;;;;;;;;;18.12;36.00;100772.63;4997979;28;746;-61
2022/02/05 11:44:13;;;;;;;;;;;;;;;18.13;36.01;100765.16;4988839;28;881;-62
2022/02/05 11:46:39;;;;;;;;;;;;;;;18.24;36.02;100765.94;4979594;28;738;-59
2022/02/05 11:49:06;;;;;;;;;;;;;;;18.28;35.71;100754.06;4978913;28;1979;-61
2022/02/05 11:51:32;;;;;;;;;;;;;;;18.45;35.35;100759.19;4978597;28;861;-61
2022/02/05 11:53:58;;;;;;;;;;;;;;;18.47;35.44;100753.41;4995724;28;834;-63
2022/02/05 11:57:07;;;;;;;;;;;;;;;18.47;35.43;100773.50;4986788;28;803;-62
2022/02/05 11:59:34;;;;;;;;;;;;;;;18.50;34.98;100776.78;4990041;28;1383;-61
2022/02/05 12:02:15;;;;;;;;;;;;;;;18.49;35.18;100761.38;4978555;28;781;-61
2022/02/05 12:04:40;;;;;;;;;;;;;;;18.15;35.59;100762.97;4978747;28;796;-62
2022/02/05 12:07:07;;;;;;;;;;;;;;;17.94;36.39;100765.03;4961356;28;1914;-61
2022/02/05 12:09:32;;;;;;;;;;;;;;;17.61;36.85;100767.31;4965892;28;867;-61
2022/02/05 12:12:18;;;;;;;;;;;;;;;17.31;37.16;100763.56;4978692;28;752;-60
2022/02/05 12:15:02;;;;;;;;;;;;;;;17.11;37.40;100747.97;4989897;28;1635;-60
2022/02/05 12:17:38;;;;;;;;;;;;;;;16.80;38.00;100755.38;4978267;28;814;-60
2022/02/05 12:20:08;;;;;;;;;;;;;;;16.88;38.08;100757.56;4978068;28;950;-60
2022/02/05 12:22:56;;;;;;;;;;;;;;;17.05;37.70;100755.38;4980419;28;883;-60
2022/02/05 12:25:23;;;;;;;;;;;;;;;17.61;36.68;100748.06;4990070;28;818;-60
2022/02/05 12:27:48;;;;;;;;;;;;;;;18.12;35.67;100750.59;4996589;28;1980;-61
2022/02/05 12:30:26;;;;;;;;;;;;;;;18.45;35.11;100750.94;4985056;28;893;-60
2022/02/05 12:32:51;;;;;;;;;;;;;;;18.89;34.17;100756.69;4996965;28;1033;-60
2022/02/05 12:35:17;;;;;;;;;;;;;;;19.02;33.76;100753.22;4984758;28;965;-60
2022/02/05 12:37:42;;;;;;;;;;;;;;;18.58;34.80;100751.38;4978443;28;778;-61
2022/02/05 12:40:08;;;;;;;;;;;;;;;18.36;34.84;100752.66;4978212;28;851;-60
2022/02/05 12:42:38;;;;;;;;;;;;;;;17.50;36.61;100743.72;4977834;28;906;-61
2022/02/05 12:45:04;;;;;;;;;;;;;;;16.98;37.71;100743.84;4983399;28;870;-62
2022/02/05 12:47:34;;;;;;;;;;;;;;;17.14;37.23;100746.56;4980055;28;1936;-61
2022/02/05 12:50:10;;;;;;;;;;;;;;;17.02;37.52;100753.19;4978356;28;791;-62
2022/02/05 12:52:35;;;;;;;;;;;;;;;16.76;37.82;100758.69;4977843;28;746;-58
2022/02/05 12:55:02;;;;;;;;;;;;;;;16.51;38.54;100750.41;4978021;28;824;-62
2022/02/05 12:57:28;;;;;;;;;;;;;;;17.28;36.88;100744.91;4960605;28;729;-60
2022/02/05 12:59:54;;;;;;;;;;;;;;;18.24;35.17;100749.44;4983691;28;845;-61
2022/02/05 13:02:21;;;;;;;;;;;;;;;18.20;35.33;100753.84;4977703;28;751;-61
2022/02/05 13:04:47;;;;;;;;;;;;;;;17.81;35.96;100760.09;4978200;28;790;-61
2022/02/05 13:07:21;;;;;;;;;;;;;;;17.63;36.18;100745.88;4977606;28;1985;-62
2022/02/05 13:10:05;;;;;;;;;;;;;;;17.45;36.46;100750.88;4977679;28;778;-63
2022/02/05 13:12:35;;;;;;;;;;;;;;;17.31;36.76;100747.09;4985168;28;822;-62
2022/02/05 13:15:08;;;;;;;;;;;;;;;17.31;36.72;100743.53;4984321;28;819;-62
2022/02/05 13:36:18;;;;;;;;;;;;;;;18.76;34.12;100753.44;4981162;28;778;-61
2022/02/05 13:41:30;;;;;;;;;;;;;;;17.78;35.73;100759.56;4994984;28;834;-61
2022/02/05 13:43:56;;;;;;;;;;;;;;;17.53;36.50;100756.91;4998333;28;924;-62
2022/02/05 13:46:21;;;;;;;;;;;;;;;17.17;37.17;100762.53;4994467;28;803;-62
2022/02/05 13:48:47;;;;;;;;;;;;;;;16.97;37.68;100753.22;4999953;28;1996;-61
2022/02/05 13:51:12;;;;;;;;;;;;;;;16.81;38.00;100755.09;4986213;28;846;-60
2022/02/05 13:53:51;;;;;;;;;;;;;;;17.08;37.49;100754.84;4980867;28;920;-59
2022/02/05 13:56:17;;;;;;;;;;;;;;;17.18;37.20;100753.16;4981126;28;813;-62
2022/02/05 13:58:43;;;;;;;;;;;;;;;17.34;37.04;100767.69;4981079;28;766;-61
2022/02/05 14:01:09;;;;;;;;;;;;;;;17.23;37.14;100761.38;4985947;28;977;-60
2022/02/05 14:03:39;;;;;;;;;;;;;;;17.54;36.80;100766.81;4984812;28;1039;-61
2022/02/05 14:06:11;;;;;;;;;;;;;;;18.07;35.85;100753.38;4981076;28;806;-61
2022/02/05 14:08:41;;;;;;;;;;;;;;;18.68;34.56;100767.84;4980660;28;1994;-61
2022/02/05 14:11:07;;;;;;;;;;;;;;;18.96;33.79;100768.19;4980521;28;834;-61
2022/02/05 14:13:33;;;;;;;;;;;;;;;18.45;34.98;100761.13;4980155;28;858;-62
2022/02/05 14:16:00;;;;;;;;;;;;;;;18.11;35.54;100757.19;4984661;28;957;-59
2022/02/05 14:18:26;;;;;;;;;;;;;;;17.72;36.23;100763.44;4980566;28;834;-61
2022/02/05 14:20:52;;;;;;;;;;;;;;;17.38;36.90;100760.53;4980470;28;835;-61
2022/02/05 14:23:20;;;;;;;;;;;;;;;17.24;37.12;100772.09;4979943;28;870;-65
2022/02/05 14:25:50;;;;;;;;;;;;;;;16.90;37.55;100760.88;4980385;28;892;-62
2022/02/05 14:28:28;;;;;;;;;;;;;;;17.02;37.50;100768.84;4984635;28;1918;-62
2022/02/05 14:33:43;;;;;;;;;;;;;;;17.20;37.15;100770.19;4980413;28;901;-63
2022/02/05 14:41:21;;;;;;;;;;;;;;;17.92;35.91;100784.56;4985745;28;968;-61
2022/02/05 14:43:47;;;;;;;;;;;;;;;18.01;35.49;100775.72;4980036;28;932;-60
2022/02/05 14:46:12;;;;;;;;;;;;;;;18.14;35.45;100766.81;4980302;28;901;-61
2022/02/05 14:48:37;;;;;;;;;;;;;;;18.41;35.08;100768.28;4980005;28;1982;-61
2022/02/05 14:51:04;;;;;;;;;;;;;;;18.21;35.35;100769.28;4980142;28;772;-62
2022/02/05 14:53:30;;;;;;;;;;;;;;;18.31;34.93;100774.69;4982425;28;1306;-63
2022/02/05 14:55:56;;;;;;;;;;;;;;;18.36;35.16;100777.44;4979108;28;1385;-63
2022/02/05 14:58:21;;;;;;;;;;;;;;;18.36;35.16;100780.19;4979356;28;1342;-62
2022/02/05 15:00:46;;;;;;;;;;;;;;;18.44;34.94;100784.28;4980960;28;1250;-62
2022/02/05 15:03:16;;;;;;;;;;;;;;;18.51;34.85;100786.69;4979842;28;882;-59
2022/02/05 15:05:42;;;;;;;;;;;;;;;18.50;34.69;100785.88;4979805;28;752;-59
2022/02/05 15:08:07;;;;;;;;;;;;;;;18.34;35.12;100793.41;4981496;28;1914;-61
2022/02/05 15:10:34;;;;;;;;;;;;;;;17.99;35.73;100803.50;4979795;28;952;-60
2022/02/05 15:13:00;;;;;;;;;;;;;;;17.69;36.18;100802.50;4979759;28;794;-61
2022/02/05 15:15:26;;;;;;;;;;;;;;;17.53;36.58;100804.47;4983828;28;869;-61
2022/02/05 15:17:52;;;;;;;;;;;;;;;17.35;36.86;100813.28;4979548;28;861;-61
2022/02/05 15:20:19;;;;;;;;;;;;;;;17.15;37.28;100803.97;4984512;28;801;-62
2022/02/05 15:22:45;;;;;;;;;;;;;;;17.15;37.77;100798.50;4979095;28;813;-60
2022/02/05 15:25:12;;;;;;;;;;;;;;;17.55;37.09;100802.25;4979703;28;754;-61
2022/02/05 15:27:38;;;;;;;;;;;;;;;17.73;36.47;100795.31;4979144;28;1894;-61
2022/02/05 15:30:04;;;;;;;;;;;;;;;17.82;36.37;100805.75;4982137;28;918;-61
2022/02/05 15:32:30;;;;;;;;;;;;;;;18.07;36.10;100796.59;4981319;28;1231;-61
2022/02/05 15:34:56;;;;;;;;;;;;;;;18.17;35.78;100799.28;4997290;28;979;-61
2022/02/05 15:37:24;;;;;;;;;;;;;;;18.18;35.78;100798.19;4997762;28;798;-61
2022/02/05 15:40:03;;;;;;;;;;;;;;;18.24;35.34;100797.06;4997808;28;844;-61
2022/02/05 15:45:13;;;;;;;;;;;;;;;18.28;35.55;100797.28;4992850;28;1392;-60
2022/02/05 15:47:40;;;;;;;;;;;;;;;18.43;35.32;100804.66;4978657;28;1979;-61
2022/02/05 15:50:07;;;;;;;;;;;;;;;18.29;35.39;100809.97;4977960;28;1173;-58
2022/02/05 15:52:32;;;;;;;;;;;;;;;18.31;35.39;100813.22;4978798;28;959;-58
2022/02/05 15:55:00;;;;;;;;;;;;;;;18.36;35.25;100810.47;4978539;28;959;-57
2022/02/05 16:00:22;;;;;;;;;;;;;;;18.31;35.39;100832.50;4987856;28;1448;-59
2022/02/05 16:02:48;;;;;;;;;;;;;;;18.44;35.11;100823.63;4996276;28;1178;-57
2022/02/05 16:05:13;;;;;;;;;;;;;;;18.50;35.15;100831.88;4996392;28;1413;-58